sensor_id;sensor_type;location;lat;lon;timestamp;P1;durP1;ratioP1;P2;durP2;ratioP2
12846;SDS011;6492;48.128;8.320;2022-12-08T00:02:15;5.67;;;3.00;;
12846;SDS011;6492;48.128;8.320;2022-12-08T00:06:24;4.63;;;3.10;;
12846;SDS011;6492;48.128;8.320;2022-12-08T00:10:45;3.93;;;2.70;;
12846;SDS011;6492;48.128;8.320;2022-12-08T00:14:47;3.23;;;2.40;;
12846;SDS011;6492;48.128;8.320;2022-12-08T00:18:50;3.90;;;2.80;;
12846;SDS011;6492;48.128;8.320;2022-12-08T00:22:52;4.27;;;2.90;;
12846;SDS011;6492;48.128;8.320;2022-12-08T00:26:53;5.33;;;2.90;;
12846;SDS011;6492;48.128;8.320;2022-12-08T00:30:56;4.10;;;2.87;;
12846;SDS011;6492;48.128;8.320;2022-12-08T00:34:59;4.53;;;3.10;;
12846;SDS011;6492;48.128;8.320;2022-12-08T00:39:01;2.70;;;2.47;;
12846;SDS011;6492;48.128;8.320;2022-12-08T00:43:03;3.00;;;2.40;;
12846;SDS011;6492;48.128;8.320;2022-12-08T00:47:04;2.90;;;2.50;;
12846;SDS011;6492;48.128;8.320;2022-12-08T00:51:08;3.33;;;2.40;;
12846;SDS011;6492;48.128;8.320;2022-12-08T00:55:09;3.83;;;2.90;;
12846;SDS011;6492;48.128;8.320;2022-12-08T00:59:11;3.37;;;2.40;;
12846;SDS011;6492;48.128;8.320;2022-12-08T01:03:13;2.57;;;2.20;;
12846;SDS011;6492;48.128;8.320;2022-12-08T01:07:16;4.03;;;2.90;;
12846;SDS011;6492;48.128;8.320;2022-12-08T01:11:18;4.13;;;2.70;;
12846;SDS011;6492;48.128;8.320;2022-12-08T01:15:20;3.57;;;2.70;;
12846;SDS011;6492;48.128;8.320;2022-12-08T01:19:22;3.93;;;2.50;;
12846;SDS011;6492;48.128;8.320;2022-12-08T01:23:25;3.77;;;2.70;;
12846;SDS011;6492;48.128;8.320;2022-12-08T01:27:28;4.27;;;2.90;;
12846;SDS011;6492;48.128;8.320;2022-12-08T01:31:29;4.27;;;2.80;;
12846;SDS011;6492;48.128;8.320;2022-12-08T01:35:32;2.90;;;2.47;;
12846;SDS011;6492;48.128;8.320;2022-12-08T01:39:36;3.30;;;2.43;;
12846;SDS011;6492;48.128;8.320;2022-12-08T01:43:44;5.30;;;2.87;;
12846;SDS011;6492;48.128;8.320;2022-12-08T01:47:57;4.40;;;2.90;;
12846;SDS011;6492;48.128;8.320;2022-12-08T01:52:06;4.00;;;3.00;;
12846;SDS011;6492;48.128;8.320;2022-12-08T01:56:17;4.07;;;3.00;;
12846;SDS011;6492;48.128;8.320;2022-12-08T02:00:21;3.80;;;2.70;;
12846;SDS011;6492;48.128;8.320;2022-12-08T02:04:24;3.53;;;2.70;;
12846;SDS011;6492;48.128;8.320;2022-12-08T02:08:25;2.97;;;2.33;;
12846;SDS011;6492;48.128;8.320;2022-12-08T02:12:30;4.70;;;3.23;;
12846;SDS011;6492;48.128;8.320;2022-12-08T02:16:34;5.07;;;3.20;;
12846;SDS011;6492;48.128;8.320;2022-12-08T02:20:44;5.00;;;2.93;;
12846;SDS011;6492;48.128;8.320;2022-12-08T02:24:55;5.47;;;3.23;;
12846;SDS011;6492;48.128;8.320;2022-12-08T02:29:07;4.27;;;3.20;;
12846;SDS011;6492;48.128;8.320;2022-12-08T02:38:14;4.43;;;2.83;;
12846;SDS011;6492;48.128;8.320;2022-12-08T02:42:24;5.97;;;3.43;;
12846;SDS011;6492;48.128;8.320;2022-12-08T02:46:32;4.47;;;2.97;;
12846;SDS011;6492;48.128;8.320;2022-12-08T02:50:39;5.87;;;3.43;;
12846;SDS011;6492;48.128;8.320;2022-12-08T02:54:43;4.97;;;3.60;;
12846;SDS011;6492;48.128;8.320;2022-12-08T02:58:53;5.07;;;3.57;;
12846;SDS011;6492;48.128;8.320;2022-12-08T03:03:12;5.07;;;3.60;;
12846;SDS011;6492;48.128;8.320;2022-12-08T03:07:26;4.07;;;3.27;;
12846;SDS011;6492;48.128;8.320;2022-12-08T03:11:37;3.93;;;3.00;;
12846;SDS011;6492;48.128;8.320;2022-12-08T03:15:45;3.83;;;3.00;;
12846;SDS011;6492;48.128;8.320;2022-12-08T03:19:50;4.53;;;3.10;;
12846;SDS011;6492;48.128;8.320;2022-12-08T03:23:55;5.27;;;3.47;;
12846;SDS011;6492;48.128;8.320;2022-12-08T03:27:58;3.77;;;2.87;;
12846;SDS011;6492;48.128;8.320;2022-12-08T03:32:02;3.93;;;2.90;;
12846;SDS011;6492;48.128;8.320;2022-12-08T03:36:09;3.87;;;2.93;;
12846;SDS011;6492;48.128;8.320;2022-12-08T03:40:14;5.33;;;3.33;;
12846;SDS011;6492;48.128;8.320;2022-12-08T03:44:17;4.07;;;2.80;;
12846;SDS011;6492;48.128;8.320;2022-12-08T03:48:19;3.07;;;2.37;;
12846;SDS011;6492;48.128;8.320;2022-12-08T03:52:21;3.10;;;2.53;;
12846;SDS011;6492;48.128;8.320;2022-12-08T03:56:25;2.90;;;2.40;;
12846;SDS011;6492;48.128;8.320;2022-12-08T04:00:28;5.27;;;2.90;;
12846;SDS011;6492;48.128;8.320;2022-12-08T04:04:30;4.27;;;2.50;;
12846;SDS011;6492;48.128;8.320;2022-12-08T04:08:32;4.20;;;2.97;;
12846;SDS011;6492;48.128;8.320;2022-12-08T04:12:36;2.80;;;2.50;;
12846;SDS011;6492;48.128;8.320;2022-12-08T04:16:39;4.00;;;2.50;;
12846;SDS011;6492;48.128;8.320;2022-12-08T04:20:42;2.63;;;2.23;;
12846;SDS011;6492;48.128;8.320;2022-12-08T04:24:44;2.90;;;2.27;;
12846;SDS011;6492;48.128;8.320;2022-12-08T04:28:48;3.53;;;2.60;;
12846;SDS011;6492;48.128;8.320;2022-12-08T04:32:49;3.03;;;2.03;;
12846;SDS011;6492;48.128;8.320;2022-12-08T04:36:51;3.20;;;2.90;;
12846;SDS011;6492;48.128;8.320;2022-12-08T04:40:53;2.73;;;2.13;;
12846;SDS011;6492;48.128;8.320;2022-12-08T04:44:56;2.50;;;2.17;;
12846;SDS011;6492;48.128;8.320;2022-12-08T04:48:58;3.13;;;2.30;;
12846;SDS011;6492;48.128;8.320;2022-12-08T04:53:00;3.80;;;2.40;;
12846;SDS011;6492;48.128;8.320;2022-12-08T04:57:01;4.00;;;2.53;;
12846;SDS011;6492;48.128;8.320;2022-12-08T05:01:05;3.93;;;2.80;;
12846;SDS011;6492;48.128;8.320;2022-12-08T05:05:07;3.07;;;2.50;;
12846;SDS011;6492;48.128;8.320;2022-12-08T05:09:09;2.50;;;2.17;;
12846;SDS011;6492;48.128;8.320;2022-12-08T05:13:11;3.20;;;2.10;;
12846;SDS011;6492;48.128;8.320;2022-12-08T05:17:14;3.00;;;2.10;;
12846;SDS011;6492;48.128;8.320;2022-12-08T05:21:22;2.50;;;2.30;;
12846;SDS011;6492;48.128;8.320;2022-12-08T05:25:24;2.40;;;2.10;;
12846;SDS011;6492;48.128;8.320;2022-12-08T05:29:26;2.67;;;2.10;;
12846;SDS011;6492;48.128;8.320;2022-12-08T05:33:30;3.27;;;2.40;;
12846;SDS011;6492;48.128;8.320;2022-12-08T05:37:34;3.73;;;2.70;;
12846;SDS011;6492;48.128;8.320;2022-12-08T05:41:36;2.83;;;2.53;;
12846;SDS011;6492;48.128;8.320;2022-12-08T05:45:38;3.40;;;2.70;;
12846;SDS011;6492;48.128;8.320;2022-12-08T05:49:41;5.50;;;3.13;;
12846;SDS011;6492;48.128;8.320;2022-12-08T05:53:43;6.67;;;3.90;;
12846;SDS011;6492;48.128;8.320;2022-12-08T05:57:44;3.73;;;3.20;;
12846;SDS011;6492;48.128;8.320;2022-12-08T06:01:46;4.20;;;2.83;;
12846;SDS011;6492;48.128;8.320;2022-12-08T06:05:49;2.63;;;2.17;;
12846;SDS011;6492;48.128;8.320;2022-12-08T06:09:51;3.57;;;2.67;;
12846;SDS011;6492;48.128;8.320;2022-12-08T06:13:53;2.60;;;2.30;;
12846;SDS011;6492;48.128;8.320;2022-12-08T06:17:55;3.60;;;2.30;;
12846;SDS011;6492;48.128;8.320;2022-12-08T06:21:59;3.20;;;2.53;;
12846;SDS011;6492;48.128;8.320;2022-12-08T06:26:01;3.53;;;2.73;;
12846;SDS011;6492;48.128;8.320;2022-12-08T06:30:03;4.17;;;3.20;;
12846;SDS011;6492;48.128;8.320;2022-12-08T06:34:05;3.23;;;2.53;;
12846;SDS011;6492;48.128;8.320;2022-12-08T06:38:09;4.47;;;3.37;;
12846;SDS011;6492;48.128;8.320;2022-12-08T06:42:11;4.53;;;3.13;;
12846;SDS011;6492;48.128;8.320;2022-12-08T06:46:31;5.03;;;3.07;;
12846;SDS011;6492;48.128;8.320;2022-12-08T06:50:32;3.83;;;2.93;;
12846;SDS011;6492;48.128;8.320;2022-12-08T06:54:36;4.13;;;2.80;;
12846;SDS011;6492;48.128;8.320;2022-12-08T06:58:38;5.00;;;3.37;;
12846;SDS011;6492;48.128;8.320;2022-12-08T07:02:40;5.60;;;3.97;;
12846;SDS011;6492;48.128;8.320;2022-12-08T07:06:42;6.40;;;4.00;;
12846;SDS011;6492;48.128;8.320;2022-12-08T07:10:45;14.23;;;7.07;;
12846;SDS011;6492;48.128;8.320;2022-12-08T07:14:47;9.17;;;6.33;;
12846;SDS011;6492;48.128;8.320;2022-12-08T07:18:49;7.20;;;4.80;;
12846;SDS011;6492;48.128;8.320;2022-12-08T07:22:51;11.37;;;5.20;;
12846;SDS011;6492;48.128;8.320;2022-12-08T07:26:55;6.30;;;4.23;;
12846;SDS011;6492;48.128;8.320;2022-12-08T07:30:57;7.33;;;4.40;;
12846;SDS011;6492;48.128;8.320;2022-12-08T07:34:58;5.53;;;3.80;;
12846;SDS011;6492;48.128;8.320;2022-12-08T07:39:00;6.87;;;5.00;;
12846;SDS011;6492;48.128;8.320;2022-12-08T07:43:03;5.80;;;4.10;;
12846;SDS011;6492;48.128;8.320;2022-12-08T07:47:05;4.97;;;4.00;;
12846;SDS011;6492;48.128;8.320;2022-12-08T07:51:07;6.43;;;3.50;;
12846;SDS011;6492;48.128;8.320;2022-12-08T07:55:10;4.60;;;3.23;;
12846;SDS011;6492;48.128;8.320;2022-12-08T07:59:13;4.20;;;3.17;;
12846;SDS011;6492;48.128;8.320;2022-12-08T08:03:15;5.30;;;3.43;;
12846;SDS011;6492;48.128;8.320;2022-12-08T08:07:17;6.60;;;3.90;;
12846;SDS011;6492;48.128;8.320;2022-12-08T08:11:19;4.20;;;3.53;;
12846;SDS011;6492;48.128;8.320;2022-12-08T08:15:23;5.10;;;3.80;;
12846;SDS011;6492;48.128;8.320;2022-12-08T08:19:24;5.40;;;3.83;;
12846;SDS011;6492;48.128;8.320;2022-12-08T08:23:26;7.50;;;5.40;;
12846;SDS011;6492;48.128;8.320;2022-12-08T08:27:28;9.77;;;6.70;;
12846;SDS011;6492;48.128;8.320;2022-12-08T08:31:31;9.87;;;7.07;;
12846;SDS011;6492;48.128;8.320;2022-12-08T08:35:33;34.13;;;19.90;;
12846;SDS011;6492;48.128;8.320;2022-12-08T08:39:35;8.00;;;5.03;;
12846;SDS011;6492;48.128;8.320;2022-12-08T08:43:37;8.10;;;5.90;;
12846;SDS011;6492;48.128;8.320;2022-12-08T08:47:40;4.83;;;4.00;;
12846;SDS011;6492;48.128;8.320;2022-12-08T08:51:42;11.50;;;7.77;;
12846;SDS011;6492;48.128;8.320;2022-12-08T08:55:44;5.87;;;4.27;;
12846;SDS011;6492;48.128;8.320;2022-12-08T08:59:45;6.13;;;4.60;;
12846;SDS011;6492;48.128;8.320;2022-12-08T09:03:49;4.40;;;3.30;;
12846;SDS011;6492;48.128;8.320;2022-12-08T09:07:50;6.53;;;4.37;;
12846;SDS011;6492;48.128;8.320;2022-12-08T09:11:52;20.70;;;9.50;;
12846;SDS011;6492;48.128;8.320;2022-12-08T09:15:55;12.10;;;6.67;;
12846;SDS011;6492;48.128;8.320;2022-12-08T09:19:58;20.87;;;14.07;;
12846;SDS011;6492;48.128;8.320;2022-12-08T09:24:00;9.80;;;7.07;;
12846;SDS011;6492;48.128;8.320;2022-12-08T09:28:02;9.27;;;6.40;;
12846;SDS011;6492;48.128;8.320;2022-12-08T09:32:04;8.93;;;4.87;;
12846;SDS011;6492;48.128;8.320;2022-12-08T09:36:08;6.43;;;4.57;;
12846;SDS011;6492;48.128;8.320;2022-12-08T09:40:10;7.27;;;4.90;;
12846;SDS011;6492;48.128;8.320;2022-12-08T09:44:25;3.70;;;3.07;;
12846;SDS011;6492;48.128;8.320;2022-12-08T09:48:41;3.67;;;2.60;;
12846;SDS011;6492;48.128;8.320;2022-12-08T09:52:50;4.60;;;2.80;;
12846;SDS011;6492;48.128;8.320;2022-12-08T09:56:58;3.67;;;2.87;;
12846;SDS011;6492;48.128;8.320;2022-12-08T10:01:03;3.83;;;3.00;;
12846;SDS011;6492;48.128;8.320;2022-12-08T10:05:05;7.70;;;3.90;;
12846;SDS011;6492;48.128;8.320;2022-12-08T10:09:17;26.93;;;12.23;;
12846;SDS011;6492;48.128;8.320;2022-12-08T10:13:30;3.57;;;3.00;;
12846;SDS011;6492;48.128;8.320;2022-12-08T10:17:39;4.83;;;3.50;;
12846;SDS011;6492;48.128;8.320;2022-12-08T10:21:45;3.60;;;3.20;;
12846;SDS011;6492;48.128;8.320;2022-12-08T10:25:49;3.43;;;3.00;;
12846;SDS011;6492;48.128;8.320;2022-12-08T10:29:52;3.67;;;3.13;;
12846;SDS011;6492;48.128;8.320;2022-12-08T10:33:56;3.23;;;2.40;;
12846;SDS011;6492;48.128;8.320;2022-12-08T10:38:00;3.07;;;2.77;;
12846;SDS011;6492;48.128;8.320;2022-12-08T10:42:08;4.33;;;2.93;;
12846;SDS011;6492;48.128;8.320;2022-12-08T10:46:17;4.23;;;2.93;;
12846;SDS011;6492;48.128;8.320;2022-12-08T10:50:22;3.33;;;2.77;;
12846;SDS011;6492;48.128;8.320;2022-12-08T10:54:31;3.10;;;2.50;;
12846;SDS011;6492;48.128;8.320;2022-12-08T10:58:38;3.13;;;2.40;;
12846;SDS011;6492;48.128;8.320;2022-12-08T11:06:58;7.70;;;5.50;;
12846;SDS011;6492;48.128;8.320;2022-12-08T11:11:00;4.93;;;3.80;;
12846;SDS011;6492;48.128;8.320;2022-12-08T11:15:04;3.40;;;2.70;;
12846;SDS011;6492;48.128;8.320;2022-12-08T11:19:11;3.07;;;2.77;;
12846;SDS011;6492;48.128;8.320;2022-12-08T11:23:20;4.27;;;2.20;;
12846;SDS011;6492;48.128;8.320;2022-12-08T11:27:24;3.07;;;2.20;;
12846;SDS011;6492;48.128;8.320;2022-12-08T11:31:28;3.13;;;2.50;;
12846;SDS011;6492;48.128;8.320;2022-12-08T11:35:32;3.17;;;2.67;;
12846;SDS011;6492;48.128;8.320;2022-12-08T11:39:38;2.90;;;2.60;;
12846;SDS011;6492;48.128;8.320;2022-12-08T11:43:45;2.50;;;2.23;;
12846;SDS011;6492;48.128;8.320;2022-12-08T11:47:57;4.87;;;2.63;;
12846;SDS011;6492;48.128;8.320;2022-12-08T11:52:06;3.47;;;2.30;;
12846;SDS011;6492;48.128;8.320;2022-12-08T11:56:19;2.80;;;2.30;;
12846;SDS011;6492;48.128;8.320;2022-12-08T12:00:24;2.40;;;2.17;;
12846;SDS011;6492;48.128;8.320;2022-12-08T12:04:28;2.50;;;2.03;;
12846;SDS011;6492;48.128;8.320;2022-12-08T12:08:38;3.03;;;2.47;;
12846;SDS011;6492;48.128;8.320;2022-12-08T12:12:52;3.43;;;2.30;;
12846;SDS011;6492;48.128;8.320;2022-12-08T12:17:03;3.10;;;2.80;;
12846;SDS011;6492;48.128;8.320;2022-12-08T12:21:09;3.07;;;2.53;;
12846;SDS011;6492;48.128;8.320;2022-12-08T12:25:16;2.97;;;2.57;;
12846;SDS011;6492;48.128;8.320;2022-12-08T12:29:20;5.20;;;2.83;;
12846;SDS011;6492;48.128;8.320;2022-12-08T12:33:24;5.93;;;3.60;;
12846;SDS011;6492;48.128;8.320;2022-12-08T12:41:41;5.43;;;3.77;;
12846;SDS011;6492;48.128;8.320;2022-12-08T12:45:46;5.97;;;3.90;;
12846;SDS011;6492;48.128;8.320;2022-12-08T12:49:51;9.43;;;6.13;;
12846;SDS011;6492;48.128;8.320;2022-12-08T12:54:20;5.93;;;3.87;;
12846;SDS011;6492;48.128;8.320;2022-12-08T13:02:44;3.60;;;2.67;;
12846;SDS011;6492;48.128;8.320;2022-12-08T13:06:47;3.03;;;2.47;;
12846;SDS011;6492;48.128;8.320;2022-12-08T13:10:57;2.33;;;2.10;;
12846;SDS011;6492;48.128;8.320;2022-12-08T13:15:03;3.23;;;2.57;;
12846;SDS011;6492;48.128;8.320;2022-12-08T13:19:10;2.67;;;2.20;;
12846;SDS011;6492;48.128;8.320;2022-12-08T13:27:52;2.60;;;2.00;;
12846;SDS011;6492;48.128;8.320;2022-12-08T13:31:54;4.37;;;2.50;;
12846;SDS011;6492;48.128;8.320;2022-12-08T13:40:21;3.00;;;2.10;;
12846;SDS011;6492;48.128;8.320;2022-12-08T13:44:28;2.73;;;2.10;;
12846;SDS011;6492;48.128;8.320;2022-12-08T13:48:39;2.40;;;2.10;;
12846;SDS011;6492;48.128;8.320;2022-12-08T13:52:47;3.17;;;2.87;;
12846;SDS011;6492;48.128;8.320;2022-12-08T13:56:54;2.87;;;2.57;;
12846;SDS011;6492;48.128;8.320;2022-12-08T14:01:01;5.00;;;3.23;;
12846;SDS011;6492;48.128;8.320;2022-12-08T14:05:06;2.57;;;2.37;;
12846;SDS011;6492;48.128;8.320;2022-12-08T14:09:09;3.30;;;2.70;;
12846;SDS011;6492;48.128;8.320;2022-12-08T14:13:14;4.20;;;3.27;;
12846;SDS011;6492;48.128;8.320;2022-12-08T14:17:19;3.70;;;3.23;;
12846;SDS011;6492;48.128;8.320;2022-12-08T14:21:28;5.47;;;3.43;;
12846;SDS011;6492;48.128;8.320;2022-12-08T14:25:30;5.20;;;3.13;;
12846;SDS011;6492;48.128;8.320;2022-12-08T14:29:35;4.13;;;3.20;;
12846;SDS011;6492;48.128;8.320;2022-12-08T14:33:41;4.30;;;3.30;;
12846;SDS011;6492;48.128;8.320;2022-12-08T14:37:43;8.57;;;6.17;;
12846;SDS011;6492;48.128;8.320;2022-12-08T14:41:57;6.80;;;4.47;;
12846;SDS011;6492;48.128;8.320;2022-12-08T14:46:00;6.13;;;3.83;;
12846;SDS011;6492;48.128;8.320;2022-12-08T14:54:38;4.10;;;3.10;;
12846;SDS011;6492;48.128;8.320;2022-12-08T14:58:41;6.33;;;4.80;;
12846;SDS011;6492;48.128;8.320;2022-12-08T15:02:43;7.33;;;5.03;;
12846;SDS011;6492;48.128;8.320;2022-12-08T15:06:50;6.70;;;4.77;;
12846;SDS011;6492;48.128;8.320;2022-12-08T15:11:17;5.47;;;4.23;;
12846;SDS011;6492;48.128;8.320;2022-12-08T15:15:28;6.43;;;4.90;;
12846;SDS011;6492;48.128;8.320;2022-12-08T15:19:32;7.83;;;4.80;;
12846;SDS011;6492;48.128;8.320;2022-12-08T15:23:35;6.43;;;4.53;;
12846;SDS011;6492;48.128;8.320;2022-12-08T15:27:43;8.77;;;4.57;;
12846;SDS011;6492;48.128;8.320;2022-12-08T15:31:46;6.87;;;5.47;;
12846;SDS011;6492;48.128;8.320;2022-12-08T15:35:48;10.03;;;7.27;;
12846;SDS011;6492;48.128;8.320;2022-12-08T15:39:52;12.93;;;9.43;;
12846;SDS011;6492;48.128;8.320;2022-12-08T15:43:53;8.93;;;6.30;;
12846;SDS011;6492;48.128;8.320;2022-12-08T15:47:55;8.73;;;6.17;;
12846;SDS011;6492;48.128;8.320;2022-12-08T15:51:57;7.23;;;5.93;;
12846;SDS011;6492;48.128;8.320;2022-12-08T15:56:02;10.03;;;5.77;;
12846;SDS011;6492;48.128;8.320;2022-12-08T16:00:09;9.90;;;6.00;;
12846;SDS011;6492;48.128;8.320;2022-12-08T16:04:25;7.00;;;5.03;;
12846;SDS011;6492;48.128;8.320;2022-12-08T16:08:27;6.33;;;4.67;;
12846;SDS011;6492;48.128;8.320;2022-12-08T16:12:31;8.20;;;5.80;;
12846;SDS011;6492;48.128;8.320;2022-12-08T16:16:50;7.67;;;5.20;;
12846;SDS011;6492;48.128;8.320;2022-12-08T16:20:53;7.07;;;5.07;;
12846;SDS011;6492;48.128;8.320;2022-12-08T16:24:55;8.03;;;6.03;;
12846;SDS011;6492;48.128;8.320;2022-12-08T16:28:58;6.23;;;4.83;;
12846;SDS011;6492;48.128;8.320;2022-12-08T16:33:00;11.80;;;8.43;;
12846;SDS011;6492;48.128;8.320;2022-12-08T16:37:01;7.63;;;5.67;;
12846;SDS011;6492;48.128;8.320;2022-12-08T16:41:03;8.00;;;5.50;;
12846;SDS011;6492;48.128;8.320;2022-12-08T16:45:25;8.23;;;5.27;;
12846;SDS011;6492;48.128;8.320;2022-12-08T16:49:28;7.57;;;5.60;;
12846;SDS011;6492;48.128;8.320;2022-12-08T16:53:30;6.10;;;4.93;;
12846;SDS011;6492;48.128;8.320;2022-12-08T16:57:33;8.27;;;5.93;;
12846;SDS011;6492;48.128;8.320;2022-12-08T17:01:36;7.70;;;5.73;;
12846;SDS011;6492;48.128;8.320;2022-12-08T17:05:41;6.90;;;4.83;;
12846;SDS011;6492;48.128;8.320;2022-12-08T17:09:52;6.90;;;5.07;;
12846;SDS011;6492;48.128;8.320;2022-12-08T17:13:54;5.73;;;5.10;;
12846;SDS011;6492;48.128;8.320;2022-12-08T17:18:02;8.17;;;5.27;;
12846;SDS011;6492;48.128;8.320;2022-12-08T17:22:04;7.57;;;6.20;;
12846;SDS011;6492;48.128;8.320;2022-12-08T17:30:11;8.73;;;5.07;;
12846;SDS011;6492;48.128;8.320;2022-12-08T17:34:18;6.20;;;4.77;;
12846;SDS011;6492;48.128;8.320;2022-12-08T17:38:26;9.37;;;6.23;;
12846;SDS011;6492;48.128;8.320;2022-12-08T17:42:28;7.77;;;6.00;;
12846;SDS011;6492;48.128;8.320;2022-12-08T17:46:30;9.07;;;6.17;;
12846;SDS011;6492;48.128;8.320;2022-12-08T17:50:37;13.80;;;9.83;;
12846;SDS011;6492;48.128;8.320;2022-12-08T17:54:39;10.80;;;6.90;;
12846;SDS011;6492;48.128;8.320;2022-12-08T17:58:41;9.23;;;6.10;;
12846;SDS011;6492;48.128;8.320;2022-12-08T18:02:43;10.10;;;6.80;;
12846;SDS011;6492;48.128;8.320;2022-12-08T18:06:59;9.53;;;6.73;;
12846;SDS011;6492;48.128;8.320;2022-12-08T18:11:02;8.93;;;6.37;;
12846;SDS011;6492;48.128;8.320;2022-12-08T18:15:23;9.50;;;6.87;;
12846;SDS011;6492;48.128;8.320;2022-12-08T18:19:26;10.23;;;7.67;;
12846;SDS011;6492;48.128;8.320;2022-12-08T18:23:29;10.20;;;6.63;;
12846;SDS011;6492;48.128;8.320;2022-12-08T18:31:50;20.10;;;12.00;;
12846;SDS011;6492;48.128;8.320;2022-12-08T18:40:34;13.33;;;8.43;;
12846;SDS011;6492;48.128;8.320;2022-12-08T18:44:35;16.33;;;10.07;;
12846;SDS011;6492;48.128;8.320;2022-12-08T18:48:38;16.10;;;9.73;;
12846;SDS011;6492;48.128;8.320;2022-12-08T18:52:43;14.53;;;9.20;;
12846;SDS011;6492;48.128;8.320;2022-12-08T18:56:46;17.20;;;10.17;;
12846;SDS011;6492;48.128;8.320;2022-12-08T19:00:53;18.53;;;9.37;;
12846;SDS011;6492;48.128;8.320;2022-12-08T19:04:55;15.40;;;10.33;;
12846;SDS011;6492;48.128;8.320;2022-12-08T19:08:57;15.10;;;10.07;;
12846;SDS011;6492;48.128;8.320;2022-12-08T19:13:11;17.43;;;11.47;;
12846;SDS011;6492;48.128;8.320;2022-12-08T19:17:15;16.33;;;10.33;;
12846;SDS011;6492;48.128;8.320;2022-12-08T19:21:20;15.87;;;11.63;;
12846;SDS011;6492;48.128;8.320;2022-12-08T19:25:23;15.23;;;11.00;;
12846;SDS011;6492;48.128;8.320;2022-12-08T19:29:39;18.57;;;11.40;;
12846;SDS011;6492;48.128;8.320;2022-12-08T19:33:40;17.47;;;11.93;;
12846;SDS011;6492;48.128;8.320;2022-12-08T19:37:54;42.37;;;24.60;;
12846;SDS011;6492;48.128;8.320;2022-12-08T19:41:56;23.43;;;13.23;;
12846;SDS011;6492;48.128;8.320;2022-12-08T19:46:16;19.13;;;11.53;;
12846;SDS011;6492;48.128;8.320;2022-12-08T19:50:21;20.57;;;12.73;;
12846;SDS011;6492;48.128;8.320;2022-12-08T19:54:39;17.87;;;12.20;;
12846;SDS011;6492;48.128;8.320;2022-12-08T19:58:41;15.50;;;11.30;;
12846;SDS011;6492;48.128;8.320;2022-12-08T20:02:44;17.77;;;12.57;;
12846;SDS011;6492;48.128;8.320;2022-12-08T20:06:53;19.97;;;11.87;;
12846;SDS011;6492;48.128;8.320;2022-12-08T20:10:58;19.50;;;12.03;;
12846;SDS011;6492;48.128;8.320;2022-12-08T20:15:03;15.20;;;9.70;;
12846;SDS011;6492;48.128;8.320;2022-12-08T20:19:14;11.33;;;7.73;;
12846;SDS011;6492;48.128;8.320;2022-12-08T20:23:16;10.77;;;7.43;;
12846;SDS011;6492;48.128;8.320;2022-12-08T20:27:17;9.83;;;7.60;;
12846;SDS011;6492;48.128;8.320;2022-12-08T20:31:20;16.43;;;9.83;;
12846;SDS011;6492;48.128;8.320;2022-12-08T20:35:25;13.97;;;9.17;;
12846;SDS011;6492;48.128;8.320;2022-12-08T20:39:27;11.57;;;7.47;;
12846;SDS011;6492;48.128;8.320;2022-12-08T20:43:28;10.30;;;6.93;;
12846;SDS011;6492;48.128;8.320;2022-12-08T20:47:30;10.37;;;6.80;;
12846;SDS011;6492;48.128;8.320;2022-12-08T20:51:33;7.83;;;6.20;;
12846;SDS011;6492;48.128;8.320;2022-12-08T20:55:38;8.90;;;5.37;;
12846;SDS011;6492;48.128;8.320;2022-12-08T20:59:41;9.03;;;6.57;;
12846;SDS011;6492;48.128;8.320;2022-12-08T21:03:43;10.27;;;6.80;;
12846;SDS011;6492;48.128;8.320;2022-12-08T21:07:47;8.73;;;6.27;;
12846;SDS011;6492;48.128;8.320;2022-12-08T21:11:49;8.37;;;5.90;;
12846;SDS011;6492;48.128;8.320;2022-12-08T21:15:51;10.93;;;6.77;;
12846;SDS011;6492;48.128;8.320;2022-12-08T21:19:53;10.63;;;6.53;;
12846;SDS011;6492;48.128;8.320;2022-12-08T21:23:56;8.97;;;6.33;;
12846;SDS011;6492;48.128;8.320;2022-12-08T21:27:58;9.40;;;6.13;;
12846;SDS011;6492;48.128;8.320;2022-12-08T21:32:00;14.50;;;9.83;;
12846;SDS011;6492;48.128;8.320;2022-12-08T21:36:02;15.33;;;8.33;;
12846;SDS011;6492;48.128;8.320;2022-12-08T21:40:13;12.27;;;8.00;;
12846;SDS011;6492;48.128;8.320;2022-12-08T21:44:15;11.17;;;7.03;;
12846;SDS011;6492;48.128;8.320;2022-12-08T21:48:18;11.23;;;8.13;;
12846;SDS011;6492;48.128;8.320;2022-12-08T21:52:20;15.90;;;9.23;;
12846;SDS011;6492;48.128;8.320;2022-12-08T22:00:33;14.57;;;8.23;;
12846;SDS011;6492;48.128;8.320;2022-12-08T22:04:35;13.80;;;10.13;;
12846;SDS011;6492;48.128;8.320;2022-12-08T22:08:37;10.73;;;7.93;;
12846;SDS011;6492;48.128;8.320;2022-12-08T22:12:41;9.80;;;6.80;;
12846;SDS011;6492;48.128;8.320;2022-12-08T22:16:43;12.17;;;7.57;;
12846;SDS011;6492;48.128;8.320;2022-12-08T22:20:45;12.40;;;7.77;;
12846;SDS011;6492;48.128;8.320;2022-12-08T22:24:46;15.73;;;7.83;;
12846;SDS011;6492;48.128;8.320;2022-12-08T22:28:49;12.80;;;7.67;;
12846;SDS011;6492;48.128;8.320;2022-12-08T22:32:51;15.57;;;9.03;;
12846;SDS011;6492;48.128;8.320;2022-12-08T22:36:53;14.17;;;9.40;;
12846;SDS011;6492;48.128;8.320;2022-12-08T22:40:55;15.53;;;8.97;;
12846;SDS011;6492;48.128;8.320;2022-12-08T22:44:58;14.23;;;10.10;;
12846;SDS011;6492;48.128;8.320;2022-12-08T22:49:00;17.80;;;10.33;;
12846;SDS011;6492;48.128;8.320;2022-12-08T22:53:02;15.23;;;9.03;;
12846;SDS011;6492;48.128;8.320;2022-12-08T22:57:04;15.50;;;9.83;;
12846;SDS011;6492;48.128;8.320;2022-12-08T23:01:07;18.33;;;9.43;;
12846;SDS011;6492;48.128;8.320;2022-12-08T23:05:19;12.50;;;7.67;;
12846;SDS011;6492;48.128;8.320;2022-12-08T23:09:21;12.73;;;8.37;;
12846;SDS011;6492;48.128;8.320;2022-12-08T23:13:23;13.70;;;8.53;;
12846;SDS011;6492;48.128;8.320;2022-12-08T23:17:26;15.77;;;9.83;;
12846;SDS011;6492;48.128;8.320;2022-12-08T23:21:28;14.80;;;8.93;;
12846;SDS011;6492;48.128;8.320;2022-12-08T23:25:30;16.93;;;9.70;;
12846;SDS011;6492;48.128;8.320;2022-12-08T23:29:32;13.60;;;8.60;;
12846;SDS011;6492;48.128;8.320;2022-12-08T23:33:35;15.37;;;8.67;;
12846;SDS011;6492;48.128;8.320;2022-12-08T23:37:37;15.53;;;9.07;;
12846;SDS011;6492;48.128;8.320;2022-12-08T23:41:38;14.77;;;9.37;;
12846;SDS011;6492;48.128;8.320;2022-12-08T23:45:40;15.53;;;8.23;;
12846;SDS011;6492;48.128;8.320;2022-12-08T23:49:43;15.07;;;8.93;;
12846;SDS011;6492;48.128;8.320;2022-12-08T23:53:45;13.63;;;8.47;;
